CDT,Max TemperatureF,Mean TemperatureF,Min TemperatureF,Max Dew PointF,MeanDew PointF,Min DewpointF,Max Humidity, Mean Humidity, Min Humidity, Max Sea Level PressureIn, Mean Sea Level PressureIn, Min Sea Level PressureIn, Max VisibilityMiles, Mean VisibilityMiles, Min VisibilityMiles, Max Wind SpeedMPH, Mean Wind SpeedMPH, Max Gust SpeedMPH,PrecipitationIn, CloudCover, Events, WindDirDegrees
2011-10-1,84,71,58,57,47,40,84,54,23,30.19,30.11,30.06,10,10,9,18,6,26,0.00,0,,65
2011-10-2,81,68,54,54,47,40,86,56,25,30.24,30.17,30.13,10,10,10,14,5,17,0.00,0,,61
2011-10-3,81,67,52,55,50,45,93,61,28,30.25,30.19,30.16,10,10,10,13,6,22,0.00,0,,72
2011-10-4,83,68,53,58,52,40,100,61,22,30.25,30.18,30.13,10,9,5,13,4,18,0.00,0,,73
2011-10-5,84,71,57,64,57,51,97,65,32,30.17,30.10,30.04,10,10,7,14,6,21,0.00,0,,95
2011-10-6,87,78,68,72,68,63,90,74,57,30.07,30.05,30.01,10,10,10,22,13,28,0.00,1,,105
2011-10-7,87,79,71,72,69,67,93,77,61,30.11,30.07,30.04,10,9,2,24,14,30,0.00,1,,106
2011-10-8,88,81,73,71,70,69,87,71,55,30.08,30.04,29.98,10,10,9,24,16,31,0.00,3,,101
2011-10-9,87,79,70,70,69,66,100,79,57,30.02,29.97,29.92,10,9,2,22,12,29,0.26,5,Rain,76
2011-10-10,87,77,67,69,66,63,100,72,43,30.01,29.94,29.88,10,10,4,13,5,21,0.00,2,,32
2011-10-11,90,77,64,68,65,60,100,69,38,29.93,29.88,29.81,10,8,0,13,4,15,0.01,0,Fog,339
2011-10-12,88,75,62,72,66,63,100,72,43,29.85,29.82,29.75,10,5,0,13,5,18,0.00,1,Fog,191
2011-10-13,87,73,59,70,57,42,100,61,21,29.89,29.84,29.81,10,9,7,20,8,26,0.03,1,,335
2011-10-14,87,73,58,63,54,46,100,63,25,30.00,29.96,29.91,10,8,0,13,6,18,0.00,0,Fog,60
2011-10-15,86,73,59,65,61,55,100,69,37,30.09,30.03,30.00,10,5,0,13,4,16,0.00,0,Fog,68
2011-10-16,86,74,61,69,65,60,100,74,48,30.11,30.05,29.99,10,8,4,13,4,,0.00,1,,123
2011-10-17,88,76,64,72,67,64,100,73,46,29.99,29.92,29.74,10,5,0,16,6,23,0.00,3,Fog,167
2011-10-18,77,64,50,70,55,39,93,63,33,29.99,29.81,29.68,10,10,7,29,14,46,0.01,2,Rain,311
2011-10-19,73,60,47,42,34,27,71,46,20,30.08,30.00,29.95,10,10,10,28,12,40,0.00,0,,314
2011-10-20,77,59,40,48,38,27,83,51,19,30.17,30.10,30.06,10,10,7,10,4,15,0.00,0,,202
2011-10-21,81,67,53,59,54,48,93,65,36,30.20,30.15,30.12,10,10,10,16,7,25,0.00,0,,131
2011-10-22,84,73,61,63,60,58,93,69,45,30.15,30.10,30.04,10,9,1,17,7,28,0.00,1,,181
2011-10-23,85,73,60,67,63,60,100,76,51,30.08,30.03,29.98,10,10,9,17,6,29,0.00,3,,202
2011-10-24,89,76,63,70,66,61,100,70,40,30.18,30.13,30.09,10,4,0,15,3,,0.00,3,Fog,41
2011-10-25,83,74,64,68,65,62,97,76,55,30.18,30.13,30.05,10,8,0,15,7,21,0.00,1,Fog,120
2011-10-26,85,75,65,69,66,64,93,74,55,30.04,29.96,29.91,10,10,8,18,8,23,0.00,1,,161
2011-10-27,88,78,67,70,66,63,97,71,45,29.90,29.87,29.82,10,10,9,22,7,33,0.51,2,,163
2011-10-28,67,58,48,66,52,45,97,79,60,30.24,30.06,29.89,10,9,1,24,13,30,0.08,7,Rain,343
2011-10-29,70,56,42,46,40,32,96,61,25,30.31,30.21,30.14,10,10,6,16,4,22,0.00,0,,344
2011-10-30,74,59,43,49,44,41,100,67,34,30.22,30.16,30.11,10,10,5,12,4,22,0.00,0,,69
2011-10-31,77,62,47,55,46,39,100,64,27,30.24,30.19,30.13,10,9,4,10,3,24,0.00,0,,29